Time;durP1;ratioP1;P1;durP2;ratioP2;P2;SDS_P1;SDS_P2;PMS_P1;PMS_P2;Temp;Humidity;BMP_temperature;BMP_pressure;BME280_temperature;BME280_humidity;BME280_pressure;Samples;Min_cycle;Max_cycle;Signal;HPM_P1;HPM_P2
2023/05/22 00:01:13;;;;;;;14.73;5.78;;;;;;;18.81;55.81;100363.81;5094452;28;20426;-78
2023/05/22 00:03:39;;;;;;;14.27;5.78;;;;;;;18.77;55.76;100357.06;5094589;28;20410;-78
2023/05/22 00:06:08;;;;;;;14.82;5.47;;;;;;;18.74;55.61;100348.41;5094946;28;20122;-79
2023/05/22 00:08:34;;;;;;;14.50;5.43;;;;;;;18.93;55.68;100377.84;5094679;28;20115;-78
2023/05/22 00:11:00;;;;;;;16.50;5.88;;;;;;;18.86;55.86;100355.09;5094192;28;20114;-78
2023/05/22 00:13:25;;;;;;;18.85;6.70;;;;;;;18.79;55.93;100345.97;5094182;28;20036;-81
2023/05/22 00:15:52;;;;;;;18.10;6.00;;;;;;;18.78;56.12;100350.56;5094346;28;20062;-79
2023/05/22 00:18:18;;;;;;;14.07;5.93;;;;;;;18.86;56.45;100371.44;5093846;28;20082;-80
2023/05/22 00:20:45;;;;;;;14.63;5.85;;;;;;;18.67;56.45;100341.97;5094160;28;20077;-78
2023/05/22 00:23:11;;;;;;;15.45;5.55;;;;;;;18.88;56.56;100372.94;5093523;28;20028;-79
2023/05/22 00:25:37;;;;;;;16.45;6.78;;;;;;;18.69;56.75;100342.63;5093670;28;20123;-79
2023/05/22 00:28:03;;;;;;;16.17;6.10;;;;;;;18.85;56.89;100369.75;5093400;28;20060;-78
2023/05/22 00:30:29;;;;;;;17.92;6.07;;;;;;;18.73;56.84;100344.81;5074775;28;20453;-82
2023/05/22 00:32:55;;;;;;;13.95;5.53;;;;;;;18.85;57.08;100353.41;5093270;28;20032;-77
2023/05/22 00:35:21;;;;;;;14.43;5.57;;;;;;;18.92;57.06;100357.09;5093699;28;20028;-78
2023/05/22 00:37:46;;;;;;;14.88;6.00;;;;;;;18.93;56.81;100358.75;5093020;28;20043;-77
2023/05/22 00:40:14;;;;;;;22.08;6.03;;;;;;;18.80;57.31;100347.66;5092000;28;20105;-77
2023/05/22 00:42:44;;;;;;;10.25;5.15;;;;;;;18.67;57.31;100320.19;5093013;28;20032;-81
2023/05/22 00:45:15;;;;;;;26.17;6.68;;;;;;;18.67;57.64;100339.25;5093532;28;20186;-77
2023/05/22 00:47:41;;;;;;;17.67;6.30;;;;;;;18.64;57.95;100328.72;5093033;28;20044;-80
2023/05/22 00:50:10;;;;;;;17.77;7.13;;;;;;;18.63;58.80;100346.09;5093399;28;20040;-80
2023/05/22 00:52:38;;;;;;;11.27;5.22;;;;;;;18.41;59.17;100318.66;5092651;28;20044;-79
2023/05/22 00:55:05;;;;;;;15.60;5.82;;;;;;;18.56;59.20;100365.03;5093352;28;20066;-82
2023/05/22 00:57:32;;;;;;;11.65;5.18;;;;;;;18.52;59.34;100360.16;5040361;28;20039;-81
2023/05/22 00:59:59;;;;;;;24.58;6.47;;;;;;;18.61;59.37;100357.19;5093256;28;20413;-78
2023/05/22 01:02:24;;;;;;;9.02;4.82;;;;;;;18.32;59.46;100314.31;5093746;28;20516;-78
2023/05/22 01:04:50;;;;;;;17.77;5.82;;;;;;;18.47;59.64;100337.00;5093859;28;20114;-78
2023/05/22 01:07:16;;;;;;;13.55;5.45;;;;;;;18.38;60.19;100345.41;5093762;28;20032;-78
2023/05/22 01:09:42;;;;;;;19.88;5.97;;;;;;;18.40;60.17;100337.94;5093983;28;20040;-87
2023/05/22 01:12:20;;;;;;;15.55;6.30;;;;;;;18.53;60.25;100340.06;5093472;28;20067;-80
2023/05/22 01:15:08;;;;;;;10.52;6.03;;;;;;;18.32;60.48;100330.66;5092722;28;20113;-79
2023/05/22 01:17:54;;;;;;;14.23;6.07;;;;;;;18.33;61.17;100340.53;5093230;28;20400;-79
2023/05/22 01:20:29;;;;;;;11.32;5.50;;;;;;;18.26;61.24;100352.31;5093385;28;20090;-79
2023/05/22 01:23:22;;;;;;;10.77;5.45;;;;;;;18.31;61.50;100378.00;5093699;28;20032;-78
2023/05/22 01:26:09;;;;;;;13.02;6.22;;;;;;;18.26;61.77;100372.22;5093931;28;20115;-78
2023/05/22 01:28:59;;;;;;;11.18;5.70;;;;;;;17.98;62.58;100376.47;5093654;28;20040;-80
2023/05/22 01:31:30;;;;;;;21.45;6.03;;;;;;;17.77;62.84;100355.31;5092803;28;20036;-80
2023/05/22 01:33:57;;;;;;;13.90;6.47;;;;;;;17.72;63.31;100363.19;5092719;28;20070;-78
2023/05/22 01:36:27;;;;;;;19.95;6.65;;;;;;;17.70;63.58;100358.94;5093526;28;20348;-80
2023/05/22 01:38:53;;;;;;;19.25;7.07;;;;;;;17.70;63.78;100353.50;5092846;28;20036;-78
2023/05/22 01:41:20;;;;;;;18.40;6.70;;;;;;;17.78;63.65;100367.06;5092375;28;20392;-80
2023/05/22 01:43:46;;;;;;;12.90;6.20;;;;;;;17.73;63.51;100366.75;5092346;28;20722;-79
2023/05/22 01:46:12;;;;;;;18.75;6.53;;;;;;;17.78;63.87;100375.22;5092773;28;20032;-82
2023/05/22 01:48:37;;;;;;;10.30;5.57;;;;;;;17.87;63.70;100385.03;5092725;28;20055;-81
2023/05/22 01:51:19;;;;;;;14.93;6.63;;;;;;;17.72;63.58;100357.75;5096655;28;20156;-79
2023/05/22 01:54:17;;;;;;;17.50;7.53;;;;;;;17.84;63.60;100379.97;5102656;28;20097;-81
2023/05/22 01:56:49;;;;;;;14.65;6.35;;;;;;;17.81;63.72;100369.44;5021346;28;20046;-77
2023/05/22 01:59:38;;;;;;;15.27;6.00;;;;;;;17.88;63.67;100376.72;5019671;28;20459;-80
2023/05/22 02:02:06;;;;;;;17.90;6.50;;;;;;;17.69;64.10;100376.28;5010282;28;20041;-78
2023/05/22 02:04:38;;;;;;;12.23;6.68;;;;;;;17.52;64.15;100336.56;5010176;28;20034;-77
2023/05/22 02:07:05;;;;;;;16.17;7.93;;;;;;;17.55;64.12;100350.66;5010144;28;20046;-79
2023/05/22 02:09:32;;;;;;;10.90;6.03;;;;;;;17.34;64.55;100328.63;5010407;28;20097;-79
2023/05/22 02:11:59;;;;;;;28.80;7.05;;;;;;;17.65;64.62;100369.50;5010274;28;20060;-77
2023/05/22 02:14:25;;;;;;;15.75;6.25;;;;;;;17.68;64.53;100367.28;5010209;28;20034;-81
2023/05/22 02:16:51;;;;;;;10.68;6.75;;;;;;;17.55;64.33;100338.97;5009578;28;20050;-79
2023/05/22 02:19:17;;;;;;;20.08;6.80;;;;;;;17.37;64.52;100331.84;5010043;28;20041;-78
2023/05/22 02:21:43;;;;;;;19.67;6.25;;;;;;;17.67;64.80;100367.47;4976949;28;20572;-79
2023/05/22 02:24:08;;;;;;;10.75;6.60;;;;;;;17.52;64.09;100337.38;5010020;28;20236;-77
2023/05/22 02:26:34;;;;;;;10.63;6.15;;;;;;;17.58;64.40;100346.78;5009490;28;20076;-80
2023/05/22 02:29:00;;;;;;;15.90;6.60;;;;;;;17.53;63.97;100327.38;5009193;28;20076;-79
2023/05/22 02:31:25;;;;;;;14.75;6.90;;;;;;;17.57;63.97;100329.59;5009174;28;20046;-79
2023/05/22 02:33:51;;;;;;;14.40;6.22;;;;;;;17.39;64.10;100321.66;5076018;28;20040;-79
2023/05/22 02:36:16;;;;;;;21.02;6.70;;;;;;;17.66;63.98;100360.31;5091280;28;20036;-79
2023/05/22 02:38:42;;;;;;;16.50;5.93;;;;;;;17.74;64.06;100368.44;5091822;28;20032;-83
2023/05/22 02:41:07;;;;;;;19.52;7.30;;;;;;;17.60;64.40;100355.59;5091785;28;20047;-79
2023/05/22 02:43:33;;;;;;;13.90;6.13;;;;;;;17.59;64.59;100359.31;5091246;28;20360;-81
2023/05/22 02:45:58;;;;;;;34.05;7.60;;;;;;;17.42;64.77;100329.47;5091371;28;20036;-78
2023/05/22 02:48:23;;;;;;;11.13;6.47;;;;;;;17.56;64.91;100354.25;5091849;28;20029;-78
2023/05/22 02:50:49;;;;;;;16.45;6.00;;;;;;;17.28;64.77;100313.88;5091786;28;20032;-78
2023/05/22 02:53:15;;;;;;;24.10;6.82;;;;;;;17.45;64.69;100330.97;5092350;28;20101;-78
2023/05/22 02:55:42;;;;;;;18.42;6.40;;;;;;;17.25;64.99;100325.09;5092367;28;20336;-78
2023/05/22 02:58:10;;;;;;;17.42;6.63;;;;;;;17.31;65.13;100334.41;5092635;28;20040;-79
2023/05/22 03:00:39;;;;;;;22.08;6.90;;;;;;;17.41;65.59;100357.66;5091775;28;20035;-81
2023/05/22 03:03:05;;;;;;;19.45;7.15;;;;;;;17.45;65.66;100362.75;5092127;28;20106;-80
2023/05/22 03:05:32;;;;;;;18.50;7.38;;;;;;;17.21;66.16;100337.34;5094693;28;20044;-86
2023/05/22 03:07:58;;;;;;;18.73;8.20;;;;;;;17.16;66.46;100347.88;5095515;28;20040;-78
2023/05/22 03:10:23;;;;;;;15.05;7.07;;;;;;;17.09;66.60;100344.19;5094978;28;20123;-80
2023/05/22 03:12:50;;;;;;;15.15;6.93;;;;;;;17.22;66.97;100374.38;5094528;28;20036;-79
2023/05/22 03:15:17;;;;;;;16.88;6.85;;;;;;;17.05;66.96;100331.09;5095136;28;20032;-81
2023/05/22 03:17:43;;;;;;;20.63;6.07;;;;;;;17.11;66.90;100316.81;5095750;28;20131;-80
2023/05/22 03:20:09;;;;;;;13.95;6.35;;;;;;;17.38;66.39;100352.59;5095785;28;20024;-78
2023/05/22 03:29:18;;;;;;;23.23;7.43;;;;;;;17.23;67.02;100327.16;5095504;28;20082;-78
2023/05/22 03:31:44;;;;;;;15.50;6.70;;;;;;;17.28;66.73;100321.16;5095237;28;20531;-78
2023/05/22 03:34:09;;;;;;;16.98;7.45;;;;;;;17.30;66.63;100314.56;5095278;28;20502;-78
2023/05/22 03:36:35;;;;;;;17.67;6.60;;;;;;;17.62;66.77;100353.53;5095286;28;20070;-78
2023/05/22 03:39:02;;;;;;;15.95;6.63;;;;;;;17.41;66.47;100314.16;5095296;28;20398;-79
2023/05/22 03:44:49;;;;;;;16.23;7.65;;;;;;;17.51;66.95;100340.31;5094139;28;20043;-82
2023/05/22 03:47:15;;;;;;;31.63;7.93;;;;;;;17.65;67.00;100362.19;5093083;28;20036;-83
2023/05/22 03:49:40;;;;;;;12.80;6.72;;;;;;;17.70;66.96;100365.25;5093872;28;20043;-80
2023/05/22 03:52:09;;;;;;;32.90;9.05;;;;;;;17.55;67.31;100347.94;5041245;28;20032;-80
2023/05/22 03:54:34;;;;;;;33.58;8.23;;;;;;;17.71;67.41;100369.63;5094468;28;20034;-80
2023/05/22 03:57:00;;;;;;;37.08;8.75;;;;;;;17.71;67.59;100369.63;5094105;28;20040;-82
2023/05/22 03:59:25;;;;;;;24.67;8.90;;;;;;;17.59;67.73;100348.44;5093279;28;20472;-81
2023/05/22 04:01:51;;;;;;;12.38;7.28;;;;;;;17.68;67.93;100355.53;5093368;28;20047;-81
2023/05/22 04:04:16;;;;;;;19.48;8.52;;;;;;;17.64;68.24;100356.94;5094524;28;20040;-80
2023/05/22 04:06:42;;;;;;;27.13;8.52;;;;;;;17.70;68.03;100361.69;5093072;28;20032;-80
2023/05/22 04:09:10;;;;;;;20.08;8.18;;;;;;;17.57;68.14;100351.34;5093570;28;20027;-79
2023/05/22 04:11:38;;;;;;;17.95;6.65;;;;;;;17.49;68.83;100337.75;5097763;28;20454;-79
2023/05/22 04:14:04;;;;;;;40.53;8.90;;;;;;;17.73;68.91;100361.31;5097588;28;20028;-78
2023/05/22 04:16:31;;;;;;;14.50;6.47;;;;;;;17.62;68.71;100331.78;5094600;28;20044;-81
2023/05/22 04:18:56;;;;;;;20.17;6.68;;;;;;;17.76;68.60;100336.47;5099358;28;20114;-81
2023/05/22 04:21:23;;;;;;;20.85;8.63;;;;;;;17.78;68.58;100331.69;5098276;28;20075;-81
2023/05/22 04:23:49;;;;;;;17.67;6.60;;;;;;;17.80;68.27;100335.06;5092767;28;20032;-77
2023/05/22 04:26:16;;;;;;;25.75;8.25;;;;;;;18.05;68.33;100365.72;5092298;28;20040;-86
2023/05/22 04:28:44;;;;;;;19.92;8.80;;;;;;;17.91;68.55;100341.00;5091649;28;20488;-85
2023/05/22 04:31:11;;;;;;;35.38;8.77;;;;;;;17.91;68.35;100323.81;5092256;28;20049;-78
2023/05/22 04:33:37;;;;;;;20.17;7.65;;;;;;;18.19;67.95;100363.09;5091491;28;20036;-80
2023/05/22 04:36:03;;;;;;;41.75;8.50;;;;;;;18.08;68.08;100332.69;5094158;28;20044;-80
2023/05/22 04:38:29;;;;;;;13.73;6.32;;;;;;;18.30;68.03;100365.41;5104183;28;20032;-82
2023/05/22 04:40:55;;;;;;;26.85;8.95;;;;;;;18.34;67.90;100366.75;5094972;28;20047;-82
2023/05/22 04:43:25;;;;;;;27.90;8.15;;;;;;;18.32;67.96;100347.00;5091071;28;20059;-77
2023/05/22 04:45:50;;;;;;;20.13;7.40;;;;;;;18.47;67.53;100361.50;5091084;28;20487;-78
2023/05/22 04:48:16;;;;;;;12.30;7.03;;;;;;;18.58;67.35;100362.16;5091332;28;20040;-83
2023/05/22 04:50:45;;;;;;;37.28;11.00;;;;;;;18.70;66.96;100371.59;5091547;28;20040;-82
2023/05/22 04:53:11;;;;;;;30.90;8.32;;;;;;;18.76;66.85;100368.13;5091384;28;20146;-80
2023/05/22 04:55:36;;;;;;;42.42;9.25;;;;;;;18.69;66.87;100342.63;5091014;28;20613;-85
2023/05/22 04:58:04;;;;;;;36.20;8.38;;;;;;;18.93;66.79;100362.34;5095698;28;20042;-85
2023/05/22 05:00:32;;;;;;;19.23;7.43;;;;;;;19.06;66.26;100353.53;5096438;28;20032;-86
2023/05/22 05:02:59;;;;;;;58.65;9.35;;;;;;;19.23;65.95;100352.34;5099226;28;20050;-85
2023/05/22 05:05:24;;;;;;;40.90;10.32;;;;;;;19.52;65.34;100374.19;5103778;28;20032;-83
2023/05/22 05:07:50;;;;;;;24.77;7.22;;;;;;;19.54;65.02;100368.50;5095204;28;20073;-87
2023/05/22 05:10:16;;;;;;;21.52;7.10;;;;;;;19.66;64.60;100364.31;5091164;28;20032;-84
2023/05/22 05:12:42;;;;;;;26.80;7.75;;;;;;;19.87;64.35;100366.25;5091067;28;20043;-86
2023/05/22 05:15:07;;;;;;;53.63;10.23;;;;;;;20.00;64.02;100367.22;5091490;28;20062;-81
2023/05/22 05:17:33;;;;;;;51.08;9.73;;;;;;;20.14;63.34;100370.97;5092080;28;20039;-83
2023/05/22 05:19:59;;;;;;;57.42;11.40;;;;;;;20.26;62.50;100366.72;5090274;28;20085;-79
2023/05/22 05:22:24;;;;;;;28.42;7.22;;;;;;;20.38;61.89;100370.66;5089709;28;20040;-87
2023/05/22 05:24:50;;;;;;;22.20;6.97;;;;;;;20.28;61.93;100348.25;5091043;28;20412;-78
2023/05/22 05:27:16;;;;;;;37.33;8.13;;;;;;;20.27;61.79;100332.94;5092071;28;20063;-78
2023/05/22 05:29:41;;;;;;;19.80;7.32;;;;;;;20.54;61.16;100354.00;5092892;28;20024;-77
2023/05/22 05:32:08;;;;;;;25.50;7.75;;;;;;;20.67;60.80;100353.28;5091137;28;20036;-76
2023/05/22 05:34:34;;;;;;;25.67;6.30;;;;;;;20.80;60.52;100368.91;5091832;28;20020;-78
2023/05/22 05:37:01;;;;;;;32.38;7.38;;;;;;;20.80;60.39;100347.06;5091541;28;20051;-77
2023/05/22 05:39:27;;;;;;;36.63;10.32;;;;;;;20.99;60.01;100351.84;5091506;28;20051;-78
2023/05/22 05:41:52;;;;;;;43.85;8.82;;;;;;;21.15;59.96;100368.00;5092025;28;20461;-77
2023/05/22 05:44:18;;;;;;;27.85;6.88;;;;;;;21.27;59.68;100360.94;5092054;28;20039;-76
2023/05/22 05:46:43;;;;;;;47.95;8.07;;;;;;;21.29;59.20;100353.34;5092565;28;20047;-77
2023/05/22 05:49:10;;;;;;;20.42;6.28;;;;;;;21.45;58.58;100358.50;5091981;28;20096;-78
2023/05/22 05:51:36;;;;;;;15.88;5.63;;;;;;;21.58;58.56;100368.69;5091590;28;20039;-78
2023/05/22 05:54:02;;;;;;;16.27;5.78;;;;;;;21.63;58.17;100345.13;5091561;28;20052;-76
2023/05/22 05:56:27;;;;;;;49.47;9.25;;;;;;;21.91;58.03;100371.63;5091698;28;20097;-77
2023/05/22 05:58:53;;;;;;;14.50;6.10;;;;;;;22.03;57.45;100367.22;5091991;28;20032;-78
2023/05/22 06:01:18;;;;;;;18.80;6.07;;;;;;;22.16;55.52;100373.63;5091166;28;20028;-80
2023/05/22 06:03:44;;;;;;;33.80;8.30;;;;;;;22.26;54.93;100370.50;5091086;28;20479;-80
2023/05/22 06:06:10;;;;;;;28.05;6.88;;;;;;;22.44;54.24;100378.97;5091227;28;20052;-75
2023/05/22 06:08:36;;;;;;;15.82;5.43;;;;;;;22.53;53.80;100379.59;5091605;28;20046;-76
2023/05/22 06:11:02;;;;;;;13.90;5.97;;;;;;;22.65;53.58;100378.81;5091489;28;20032;-77
2023/05/22 06:13:28;;;;;;;9.73;4.53;;;;;;;22.57;52.16;100376.22;5090661;28;20043;-77
2023/05/22 06:15:54;;;;;;;42.65;12.10;;;;;;;22.76;52.11;100397.38;5091031;28;20487;-77
2023/05/22 06:18:20;;;;;;;41.15;8.55;;;;;;;22.68;51.86;100372.06;5090939;28;20036;-77
2023/05/22 06:20:45;;;;;;;26.02;5.70;;;;;;;22.76;51.81;100358.13;5091393;28;20062;-77
2023/05/22 06:23:11;;;;;;;45.80;15.27;;;;;;;22.99;50.71;100379.69;5090593;28;20519;-77
2023/05/22 06:25:38;;;;;;;39.00;7.50;;;;;;;23.06;49.06;100383.25;5092986;28;20185;-78
2023/05/22 06:28:05;;;;;;;18.67;7.53;;;;;;;22.99;48.75;100357.72;5060342;28;20076;-77
2023/05/22 06:30:30;;;;;;;37.03;8.85;;;;;;;23.22;46.41;100382.81;5094741;28;20028;-77
2023/05/22 06:32:56;;;;;;;14.88;5.68;;;;;;;23.16;44.17;100375.44;5056534;28;20101;-79
2023/05/22 06:35:21;;;;;;;45.75;12.40;;;;;;;23.33;44.57;100373.94;5092115;28;20039;-77
2023/05/22 06:37:47;;;;;;;33.58;6.55;;;;;;;23.50;44.29;100388.94;5091386;28;20123;-76
2023/05/22 06:40:13;;;;;;;10.73;4.60;;;;;;;23.64;43.90;100373.25;5091177;28;20459;-77
2023/05/22 06:42:38;;;;;;;37.00;10.32;;;;;;;23.71;44.05;100368.59;5091756;28;20094;-78
2023/05/22 06:45:04;;;;;;;20.42;6.20;;;;;;;23.95;42.07;100378.00;5091651;28;20032;-77
2023/05/22 06:47:30;;;;;;;11.55;4.07;;;;;;;23.75;40.34;100367.13;5090561;28;20044;-77
2023/05/22 06:49:56;;;;;;;37.58;5.75;;;;;;;23.62;40.22;100351.53;5089983;28;20135;-80
2023/05/22 06:52:22;;;;;;;24.50;4.55;;;;;;;23.87;40.40;100379.09;5091095;28;20063;-76
2023/05/22 06:54:47;;;;;;;33.95;5.07;;;;;;;23.77;39.91;100346.59;5091303;28;20111;-76
2023/05/22 06:57:13;;;;;;;29.42;5.88;;;;;;;23.87;40.65;100357.13;5090987;28;20125;-77
2023/05/22 06:59:38;;;;;;;29.13;9.70;;;;;;;24.12;41.34;100365.50;5090419;28;20411;-76
2023/05/22 07:02:04;;;;;;;24.45;7.90;;;;;;;24.44;41.58;100382.88;5054876;28;20173;-79
2023/05/22 07:04:30;;;;;;;30.65;7.30;;;;;;;24.65;40.96;100383.34;5090591;28;20032;-80
2023/05/22 07:06:55;;;;;;;11.65;4.15;;;;;;;24.69;39.73;100373.59;5090292;28;20457;-77
2023/05/22 07:09:21;;;;;;;66.35;7.38;;;;;;;24.57;38.72;100364.38;5089763;28;20471;-82
2023/05/22 07:11:46;;;;;;;53.13;15.45;;;;;;;24.57;39.40;100369.03;5089017;28;20058;-79
2023/05/22 07:14:12;;;;;;;15.80;6.07;;;;;;;24.79;38.66;100362.13;5089181;28;20097;-76
2023/05/22 07:16:39;;;;;;;12.15;4.45;;;;;;;24.93;39.38;100380.22;5090281;28;20043;-77
2023/05/22 07:19:05;;;;;;;71.22;7.88;;;;;;;24.81;38.45;100377.34;5089979;28;20035;-77
2023/05/22 07:21:31;;;;;;;58.45;8.18;;;;;;;24.85;38.96;100378.59;5089993;28;20483;-76
2023/05/22 07:23:56;;;;;;;17.45;5.05;;;;;;;24.71;38.69;100371.47;5089797;28;20094;-79
2023/05/22 07:26:22;;;;;;;19.73;3.88;;;;;;;24.62;38.22;100364.56;5090353;28;20043;-79
2023/05/22 07:28:48;;;;;;;33.42;4.40;;;;;;;24.65;38.92;100366.00;5090079;28;20161;-79
2023/05/22 07:31:13;;;;;;;7.03;2.92;;;;;;;24.72;38.98;100356.66;5089161;28;20064;-76
2023/05/22 07:33:39;;;;;;;20.70;4.82;;;;;;;24.83;39.37;100353.19;5090030;28;20339;-76
2023/05/22 07:36:05;;;;;;;25.23;5.57;;;;;;;24.99;39.68;100362.81;5090979;28;20036;-77
2023/05/22 07:38:30;;;;;;;20.73;4.38;;;;;;;24.92;39.08;100338.09;5091298;28;20490;-77
2023/05/22 07:40:56;;;;;;;10.82;4.15;;;;;;;25.00;39.16;100341.66;5091192;28;20071;-76
2023/05/22 07:43:21;;;;;;;13.82;3.45;;;;;;;25.13;39.27;100341.53;5090394;28;20028;-78
2023/05/22 07:45:47;;;;;;;15.23;4.20;;;;;;;25.26;39.47;100342.22;5089481;28;20051;-77
2023/05/22 07:48:12;;;;;;;21.02;4.10;;;;;;;25.18;38.52;100336.19;5089714;28;20059;-77
2023/05/22 07:50:38;;;;;;;20.00;4.43;;;;;;;25.08;40.34;100333.94;5093109;28;20045;-79
2023/05/22 07:53:04;;;;;;;18.60;5.05;;;;;;;24.83;41.08;100342.19;5093377;28;20047;-77
2023/05/22 07:55:29;;;;;;;17.25;6.18;;;;;;;24.71;42.91;100327.47;5093748;28;20032;-78
2023/05/22 07:57:55;;;;;;;15.60;6.03;;;;;;;24.63;42.93;100338.75;5093156;28;20042;-77
2023/05/22 08:00:21;;;;;;;16.98;4.97;;;;;;;24.78;40.84;100336.50;5093159;28;20448;-81
2023/05/22 08:02:46;;;;;;;13.05;4.85;;;;;;;24.96;42.17;100344.00;5093116;28;20036;-76
2023/05/22 08:05:12;;;;;;;24.23;5.60;;;;;;;24.84;42.61;100343.91;5092974;28;20048;-76
2023/05/22 08:07:40;;;;;;;16.83;5.60;;;;;;;24.73;43.06;100347.34;5093198;28;20032;-79
2023/05/22 08:10:12;;;;;;;23.98;6.00;;;;;;;24.49;43.68;100339.91;5093176;28;20043;-76
2023/05/22 08:12:37;;;;;;;23.52;6.32;;;;;;;24.31;44.50;100345.31;5093148;28;20070;-78
2023/05/22 08:15:04;;;;;;;30.02;6.38;;;;;;;24.21;45.36;100344.94;5093677;28;20467;-77
2023/05/22 08:17:29;;;;;;;20.75;6.10;;;;;;;23.98;45.34;100314.38;5093747;28;20043;-78
2023/05/22 08:19:55;;;;;;;21.58;6.63;;;;;;;24.08;45.80;100332.09;5093060;28;20032;-82
2023/05/22 08:22:20;;;;;;;14.30;5.18;;;;;;;24.05;45.77;100324.28;5092698;28;20044;-77
2023/05/22 08:24:46;;;;;;;13.27;6.47;;;;;;;24.06;46.02;100338.88;5092971;28;20039;-76
2023/05/22 08:27:11;;;;;;;14.98;5.78;;;;;;;24.18;46.06;100339.91;5093652;28;20036;-78
2023/05/22 08:29:37;;;;;;;15.18;5.53;;;;;;;24.02;45.69;100321.97;5093375;28;20028;-80
2023/05/22 08:32:02;;;;;;;18.35;7.07;;;;;;;24.24;45.92;100339.00;5093265;28;20032;-78
2023/05/22 08:34:28;;;;;;;30.92;6.93;;;;;;;24.55;45.86;100341.78;5093365;28;20406;-77
2023/05/22 08:36:53;;;;;;;11.75;5.28;;;;;;;24.77;45.50;100347.72;5093973;28;20089;-77
2023/05/22 08:39:19;;;;;;;14.00;5.40;;;;;;;24.94;45.25;100345.31;5093098;28;20103;-77
2023/05/22 08:41:46;;;;;;;19.45;6.13;;;;;;;25.25;44.57;100346.06;5093092;28;20131;-77
2023/05/22 08:44:12;;;;;;;19.33;5.25;;;;;;;25.64;43.77;100346.72;5092814;28;20043;-76
2023/05/22 08:46:43;;;;;;;17.38;6.50;;;;;;;25.66;43.32;100323.38;5092851;28;20121;-78
2023/05/22 08:49:09;;;;;;;10.35;5.25;;;;;;;26.10;42.68;100335.13;5092683;28;20257;-76
2023/05/22 08:51:41;;;;;;;23.83;5.97;;;;;;;26.47;42.13;100342.25;5093185;28;20036;-75
2023/05/22 08:54:08;;;;;;;50.17;8.10;;;;;;;26.25;42.30;100319.03;5093362;28;20078;-76
2023/05/22 08:56:35;;;;;;;19.73;5.97;;;;;;;26.71;41.68;100330.19;5057385;28;20547;-76
2023/05/22 08:59:01;;;;;;;12.68;6.03;;;;;;;26.34;41.53;100314.88;5093102;28;20040;-75
2023/05/22 09:01:30;;;;;;;32.78;7.63;;;;;;;26.80;41.12;100316.91;5091730;28;20115;-76
2023/05/22 09:04:02;;;;;;;12.55;5.03;;;;;;;26.75;41.58;100303.81;5092272;28;20032;-76
2023/05/22 09:06:30;;;;;;;;;;;;;;;26.37;42.74;100328.19;5093223;28;20059;-78
2023/05/22 09:08:56;;;;;;;24.35;5.75;;;;;;;26.08;43.04;100332.63;5092650;28;19919;-87
2023/05/22 09:11:23;;;;;;;20.77;5.45;;;;;;;26.07;42.94;100321.81;5091317;28;20032;-80
2023/05/22 09:13:50;;;;;;;25.77;5.72;;;;;;;26.21;42.62;100334.34;5092063;28;20517;-80
2023/05/22 09:16:16;;;;;;;16.15;5.15;;;;;;;26.04;43.00;100300.22;5096361;28;20032;-86
2023/05/22 09:18:41;;;;;;;13.65;5.65;;;;;;;25.83;42.96;100293.31;5093579;28;20483;-80
2023/05/22 09:21:08;;;;;;;14.73;5.55;;;;;;;25.41;44.92;100328.13;5104634;28;20104;-78
2023/05/22 09:23:34;;;;;;;24.73;5.65;;;;;;;24.92;45.99;100310.59;5111576;28;20149;-78
2023/05/22 09:26:01;;;;;;;20.80;8.38;;;;;;;25.02;44.84;100300.97;5113429;28;20036;-78
2023/05/22 09:28:35;;;;;;;18.80;7.22;;;;;;;25.04;46.14;100315.38;5113378;28;20035;-76
2023/05/22 09:31:02;;;;;;;11.68;4.97;;;;;;;25.04;46.11;100304.34;5109963;28;20039;-78
2023/05/22 09:33:29;;;;;;;9.43;5.25;;;;;;;25.12;45.35;100301.31;5092169;28;20027;-79
2023/05/22 09:35:55;;;;;;;19.08;5.40;;;;;;;25.02;45.63;100317.47;5092163;28;20039;-78
2023/05/22 09:38:22;;;;;;;47.97;8.18;;;;;;;24.89;46.57;100308.28;5091545;28;20036;-84
2023/05/22 09:40:53;;;;;;;30.05;6.93;;;;;;;24.82;46.73;100301.19;5092477;28;20094;-81
2023/05/22 09:43:20;;;;;;;21.48;5.63;;;;;;;24.51;47.64;100310.28;5092397;28;20093;-80
2023/05/22 09:45:45;;;;;;;16.63;5.65;;;;;;;24.60;47.91;100333.69;5089171;28;20044;-80
2023/05/22 09:48:11;;;;;;;7.45;5.43;;;;;;;24.55;48.17;100328.03;5090621;28;20044;-77
2023/05/22 09:50:38;;;;;;;30.13;5.97;;;;;;;24.43;48.70;100323.47;5091071;28;20070;-81
2023/05/22 09:53:04;;;;;;;16.42;6.57;;;;;;;24.34;48.72;100296.22;5091810;28;20036;-76
2023/05/22 09:55:31;;;;;;;17.60;6.68;;;;;;;24.42;49.18;100322.63;5090872;28;20752;-79
2023/05/22 09:57:58;;;;;;;15.95;6.55;;;;;;;24.16;49.66;100312.63;5090924;28;20044;-79
2023/05/22 10:00:24;;;;;;;22.85;6.10;;;;;;;24.21;50.46;100321.06;5090926;28;20032;-83
2023/05/22 10:02:57;;;;;;;31.70;7.70;;;;;;;24.20;51.30;100340.50;5092162;28;20462;-93
2023/05/22 10:05:29;;;;;;;36.85;7.45;;;;;;;24.23;51.97;100334.56;5095368;28;20032;-90
2023/05/22 10:08:01;;;;;;;11.68;6.40;;;;;;;24.18;52.33;100323.41;5091652;28;20040;-85
2023/05/22 10:10:27;;;;;;;28.17;7.20;;;;;;;24.14;52.29;100316.66;5093173;28;20032;-84
2023/05/22 10:12:59;;;;;;;14.07;6.22;;;;;;;23.79;52.88;100295.03;5093244;28;20074;-84
2023/05/22 10:15:25;;;;;;;14.25;5.93;;;;;;;24.13;53.50;100313.06;5096235;28;20034;-82
2023/05/22 10:17:51;;;;;;;14.23;7.65;;;;;;;23.95;54.27;100329.41;5113290;28;20470;-83
2023/05/22 10:20:18;;;;;;;32.08;8.38;;;;;;;24.08;54.72;100326.59;5106529;28;20028;-75
2023/05/22 10:22:46;;;;;;;21.42;7.00;;;;;;;24.46;53.48;100328.50;5087623;28;20035;-76
2023/05/22 10:25:12;;;;;;;14.88;5.97;;;;;;;24.53;52.82;100313.63;5089156;28;20146;-76
